sensor_id;sensor_type;location;lat;lon;timestamp;pressure;altitude;pressure_sealevel;temperature;humidity
8703;BME280;9002;42.708;23.186;2024-01-30T00:00:08;96923.91;;;2.02;49.65
8703;BME280;9002;42.708;23.186;2024-01-30T00:02:35;96929.56;;;1.95;49.12
8703;BME280;9002;42.708;23.186;2024-01-30T00:05:02;96927.66;;;1.97;49.64
8703;BME280;9002;42.708;23.186;2024-01-30T00:07:30;96925.66;;;1.91;48.54
8703;BME280;9002;42.708;23.186;2024-01-30T00:09:57;96927.53;;;1.99;49.27
8703;BME280;9002;42.708;23.186;2024-01-30T00:12:24;96931.16;;;2.06;48.67
8703;BME280;9002;42.708;23.186;2024-01-30T00:14:53;96914.78;;;1.89;48.20
8703;BME280;9002;42.708;23.186;2024-01-30T00:17:20;96928.22;;;2.01;49.18
8703;BME280;9002;42.708;23.186;2024-01-30T00:19:47;96933.91;;;2.32;49.00
8703;BME280;9002;42.708;23.186;2024-01-30T00:22:14;96937.91;;;2.07;49.00
8703;BME280;9002;42.708;23.186;2024-01-30T00:24:41;96930.47;;;2.14;47.57
8703;BME280;9002;42.708;23.186;2024-01-30T00:27:08;96931.53;;;2.21;47.61
8703;BME280;9002;42.708;23.186;2024-01-30T00:29:35;96937.03;;;2.26;48.23
8703;BME280;9002;42.708;23.186;2024-01-30T00:32:04;96938.94;;;2.05;48.17
8703;BME280;9002;42.708;23.186;2024-01-30T00:34:31;96939.22;;;2.11;48.19
8703;BME280;9002;42.708;23.186;2024-01-30T00:36:57;96935.72;;;2.03;49.19
8703;BME280;9002;42.708;23.186;2024-01-30T00:39:24;96933.81;;;2.14;47.87
8703;BME280;9002;42.708;23.186;2024-01-30T00:41:51;96919.91;;;1.70;49.40
8703;BME280;9002;42.708;23.186;2024-01-30T00:44:18;96929.19;;;1.71;49.26
8703;BME280;9002;42.708;23.186;2024-01-30T00:46:45;96927.69;;;1.68;49.22
8703;BME280;9002;42.708;23.186;2024-01-30T00:49:14;96916.81;;;1.37;50.32
8703;BME280;9002;42.708;23.186;2024-01-30T00:51:41;96932.56;;;1.62;49.34
8703;BME280;9002;42.708;23.186;2024-01-30T00:54:08;96911.13;;;0.95;50.74
8703;BME280;9002;42.708;23.186;2024-01-30T00:56:35;96887.78;;;1.19;50.28
8703;BME280;9002;42.708;23.186;2024-01-30T00:59:02;96933.19;;;1.16;51.14
8703;BME280;9002;42.708;23.186;2024-01-30T01:01:29;96938.72;;;1.30;49.84
8703;BME280;9002;42.708;23.186;2024-01-30T01:03:55;96933.91;;;1.66;49.30
8703;BME280;9002;42.708;23.186;2024-01-30T01:06:25;96942.78;;;1.62;49.60
8703;BME280;9002;42.708;23.186;2024-01-30T01:08:52;96932.53;;;1.81;49.64
8703;BME280;9002;42.708;23.186;2024-01-30T01:11:19;96939.38;;;2.00;49.67
8703;BME280;9002;42.708;23.186;2024-01-30T01:13:46;96927.75;;;2.15;49.22
8703;BME280;9002;42.708;23.186;2024-01-30T01:16:12;96927.38;;;2.20;48.03
8703;BME280;9002;42.708;23.186;2024-01-30T01:18:39;96918.38;;;2.16;48.10
8703;BME280;9002;42.708;23.186;2024-01-30T01:21:06;96909.88;;;2.25;48.49
8703;BME280;9002;42.708;23.186;2024-01-30T01:23:35;96923.56;;;2.24;48.80
8703;BME280;9002;42.708;23.186;2024-01-30T01:26:02;96935.91;;;1.91;48.79
8703;BME280;9002;42.708;23.186;2024-01-30T01:28:29;96928.13;;;1.54;49.39
8703;BME280;9002;42.708;23.186;2024-01-30T01:30:55;96915.22;;;1.27;50.89
8703;BME280;9002;42.708;23.186;2024-01-30T01:33:30;96930.13;;;1.41;50.10
8703;BME280;9002;42.708;23.186;2024-01-30T01:35:57;96937.91;;;1.20;50.76
8703;BME280;9002;42.708;23.186;2024-01-30T01:38:24;96930.47;;;1.07;50.73
8703;BME280;9002;42.708;23.186;2024-01-30T01:40:52;96934.69;;;1.47;50.46
8703;BME280;9002;42.708;23.186;2024-01-30T01:43:19;96934.41;;;1.40;50.34
8703;BME280;9002;42.708;23.186;2024-01-30T01:45:46;96931.88;;;1.60;50.13
8703;BME280;9002;42.708;23.186;2024-01-30T01:48:13;96923.97;;;1.63;49.76
8703;BME280;9002;42.708;23.186;2024-01-30T01:50:41;96932.28;;;1.55;50.22
8703;BME280;9002;42.708;23.186;2024-01-30T01:53:09;96927.44;;;1.52;49.53
8703;BME280;9002;42.708;23.186;2024-01-30T01:55:37;96932.81;;;1.39;49.32
8703;BME280;9002;42.708;23.186;2024-01-30T01:58:05;96930.94;;;1.51;50.55
8703;BME280;9002;42.708;23.186;2024-01-30T02:00:34;96921.50;;;1.42;49.50
8703;BME280;9002;42.708;23.186;2024-01-30T02:03:05;96946.25;;;1.61;49.95
8703;BME280;9002;42.708;23.186;2024-01-30T02:05:32;96933.63;;;1.69;49.90
8703;BME280;9002;42.708;23.186;2024-01-30T02:07:59;96937.63;;;1.23;50.95
8703;BME280;9002;42.708;23.186;2024-01-30T02:10:26;96944.63;;;1.31;50.63
8703;BME280;9002;42.708;23.186;2024-01-30T02:12:53;96940.88;;;1.64;50.75
8703;BME280;9002;42.708;23.186;2024-01-30T02:15:21;96948.78;;;1.70;49.67
8703;BME280;9002;42.708;23.186;2024-01-30T02:17:48;96935.09;;;1.42;49.20
8703;BME280;9002;42.708;23.186;2024-01-30T02:20:15;96931.44;;;1.16;50.38
8703;BME280;9002;42.708;23.186;2024-01-30T02:22:44;96948.13;;;1.39;50.24
8703;BME280;9002;42.708;23.186;2024-01-30T02:25:11;96922.63;;;0.80;51.60
8703;BME280;9002;42.708;23.186;2024-01-30T02:27:38;96903.06;;;0.50;52.16
8703;BME280;9002;42.708;23.186;2024-01-30T02:30:06;96913.50;;;0.77;50.78
8703;BME280;9002;42.708;23.186;2024-01-30T02:32:33;96909.38;;;0.96;50.22
8703;BME280;9002;42.708;23.186;2024-01-30T02:35:00;96927.38;;;0.94;50.59
8703;BME280;9002;42.708;23.186;2024-01-30T02:37:27;96923.13;;;0.64;51.23
8703;BME280;9002;42.708;23.186;2024-01-30T02:39:55;96937.22;;;0.68;52.00
8703;BME280;9002;42.708;23.186;2024-01-30T02:42:22;96931.63;;;0.74;51.22
8703;BME280;9002;42.708;23.186;2024-01-30T02:44:48;96921.81;;;0.79;51.35
8703;BME280;9002;42.708;23.186;2024-01-30T02:47:15;96930.84;;;0.83;51.31
8703;BME280;9002;42.708;23.186;2024-01-30T02:49:42;96921.91;;;0.68;51.84
8703;BME280;9002;42.708;23.186;2024-01-30T02:52:09;96921.81;;;0.79;51.36
8703;BME280;9002;42.708;23.186;2024-01-30T02:54:36;96935.84;;;1.04;51.31
8703;BME280;9002;42.708;23.186;2024-01-30T02:57:04;96926.88;;;1.10;50.97
8703;BME280;9002;42.708;23.186;2024-01-30T02:59:31;96939.47;;;1.02;51.26
8703;BME280;9002;42.708;23.186;2024-01-30T03:02:01;96904.75;;;0.70;51.15
8703;BME280;9002;42.708;23.186;2024-01-30T03:04:28;96933.50;;;0.72;51.89
8703;BME280;9002;42.708;23.186;2024-01-30T03:06:56;96930.22;;;0.61;51.42
8703;BME280;9002;42.708;23.186;2024-01-30T03:09:22;96911.56;;;0.60;52.14
8703;BME280;9002;42.708;23.186;2024-01-30T03:11:49;96921.63;;;0.62;52.03
8703;BME280;9002;42.708;23.186;2024-01-30T03:14:18;96928.28;;;0.83;51.14
8703;BME280;9002;42.708;23.186;2024-01-30T03:16:45;96924.84;;;1.04;50.63
8703;BME280;9002;42.708;23.186;2024-01-30T03:19:12;96909.25;;;1.07;50.16
8703;BME280;9002;42.708;23.186;2024-01-30T03:21:39;96914.47;;;0.96;50.95
8703;BME280;9002;42.708;23.186;2024-01-30T03:24:06;96904.22;;;0.76;50.70
8703;BME280;9002;42.708;23.186;2024-01-30T03:26:33;96917.75;;;0.67;50.31
8703;BME280;9002;42.708;23.186;2024-01-30T03:28:59;96918.84;;;0.65;51.25
8703;BME280;9002;42.708;23.186;2024-01-30T03:31:28;96901.47;;;0.49;51.42
8703;BME280;9002;42.708;23.186;2024-01-30T03:33:55;96863.06;;;0.41;50.66
8703;BME280;9002;42.708;23.186;2024-01-30T03:36:22;96910.56;;;0.82;50.68
8703;BME280;9002;42.708;23.186;2024-01-30T03:38:49;96893.25;;;0.85;50.16
8703;BME280;9002;42.708;23.186;2024-01-30T03:41:16;96889.72;;;0.67;50.62
8703;BME280;9002;42.708;23.186;2024-01-30T03:43:43;96919.53;;;0.76;49.71
8703;BME280;9002;42.708;23.186;2024-01-30T03:46:12;96903.16;;;0.79;49.96
8703;BME280;9002;42.708;23.186;2024-01-30T03:48:40;96907.94;;;0.63;50.66
8703;BME280;9002;42.708;23.186;2024-01-30T03:51:08;96898.19;;;0.77;49.08
8703;BME280;9002;42.708;23.186;2024-01-30T03:53:40;96912.41;;;0.80;48.85
8703;BME280;9002;42.708;23.186;2024-01-30T03:56:06;96917.19;;;1.04;48.83
8703;BME280;9002;42.708;23.186;2024-01-30T03:58:33;96917.34;;;1.12;49.15
8703;BME280;9002;42.708;23.186;2024-01-30T04:01:00;96916.91;;;1.07;49.06
8703;BME280;9002;42.708;23.186;2024-01-30T04:03:27;96884.66;;;0.87;49.02
8703;BME280;9002;42.708;23.186;2024-01-30T04:05:56;96894.06;;;1.05;48.11
8703;BME280;9002;42.708;23.186;2024-01-30T04:08:23;96861.53;;;0.78;48.55
8703;BME280;9002;42.708;23.186;2024-01-30T04:10:50;96869.31;;;0.67;49.31
8703;BME280;9002;42.708;23.186;2024-01-30T04:13:17;96912.91;;;1.24;48.84
8703;BME280;9002;42.708;23.186;2024-01-30T04:15:45;96872.69;;;0.87;49.43
8703;BME280;9002;42.708;23.186;2024-01-30T04:18:12;96872.63;;;0.58;48.82
8703;BME280;9002;42.708;23.186;2024-01-30T04:20:39;96904.75;;;0.70;49.55
8703;BME280;9002;42.708;23.186;2024-01-30T04:23:07;96905.06;;;0.87;48.98
8703;BME280;9002;42.708;23.186;2024-01-30T04:25:35;96908.03;;;0.92;48.77
8703;BME280;9002;42.708;23.186;2024-01-30T04:28:01;96916.56;;;0.71;50.02
8703;BME280;9002;42.708;23.186;2024-01-30T04:30:31;96909.34;;;0.76;49.80
8703;BME280;9002;42.708;23.186;2024-01-30T04:32:58;96907.09;;;0.93;49.40
8703;BME280;9002;42.708;23.186;2024-01-30T04:35:25;96895.91;;;0.74;48.34
8703;BME280;9002;42.708;23.186;2024-01-30T04:37:52;96903.28;;;0.77;48.65
8703;BME280;9002;42.708;23.186;2024-01-30T04:43:03;96844.31;;;0.61;48.32
8703;BME280;9002;42.708;23.186;2024-01-30T04:45:30;96872.53;;;0.69;49.09
8703;BME280;9002;42.708;23.186;2024-01-30T04:47:57;96888.00;;;0.87;48.44
8703;BME280;9002;42.708;23.186;2024-01-30T04:50:29;96878.41;;;0.60;48.06
8703;BME280;9002;42.708;23.186;2024-01-30T04:52:58;96874.03;;;0.81;48.17
8703;BME280;9002;42.708;23.186;2024-01-30T04:55:34;96919.31;;;0.99;48.85
8703;BME280;9002;42.708;23.186;2024-01-30T04:58:03;96949.91;;;0.89;48.39
8703;BME280;9002;42.708;23.186;2024-01-30T05:00:30;96919.25;;;0.70;49.09
8703;BME280;9002;42.708;23.186;2024-01-30T05:02:57;96937.31;;;0.97;48.68
8703;BME280;9002;42.708;23.186;2024-01-30T05:05:24;96944.00;;;0.89;49.15
8703;BME280;9002;42.708;23.186;2024-01-30T05:07:51;96927.34;;;0.84;48.92
8703;BME280;9002;42.708;23.186;2024-01-30T05:10:18;96954.41;;;0.66;49.31
8703;BME280;9002;42.708;23.186;2024-01-30T05:12:45;96950.16;;;0.86;48.94
8703;BME280;9002;42.708;23.186;2024-01-30T05:15:16;96939.84;;;0.97;49.58
8703;BME280;9002;42.708;23.186;2024-01-30T05:17:43;96896.88;;;0.43;49.79
8703;BME280;9002;42.708;23.186;2024-01-30T05:20:11;96923.28;;;0.42;50.50
8703;BME280;9002;42.708;23.186;2024-01-30T05:22:38;96949.47;;;0.44;50.84
8703;BME280;9002;42.708;23.186;2024-01-30T05:25:10;96948.84;;;0.82;49.83
8703;BME280;9002;42.708;23.186;2024-01-30T05:27:37;96949.41;;;1.05;49.53
8703;BME280;9002;42.708;23.186;2024-01-30T05:30:05;96950.09;;;1.07;49.76
8703;BME280;9002;42.708;23.186;2024-01-30T05:32:34;96947.72;;;1.34;48.87
8703;BME280;9002;42.708;23.186;2024-01-30T05:35:01;96900.53;;;0.90;49.22
8703;BME280;9002;42.708;23.186;2024-01-30T05:37:27;96944.28;;;0.95;49.48
8703;BME280;9002;42.708;23.186;2024-01-30T05:39:54;96913.38;;;0.89;49.86
8703;BME280;9002;42.708;23.186;2024-01-30T05:42:21;96952.53;;;1.18;48.57
8703;BME280;9002;42.708;23.186;2024-01-30T05:44:48;96950.00;;;1.28;49.46
8703;BME280;9002;42.708;23.186;2024-01-30T05:47:15;96936.91;;;0.62;48.96
8703;BME280;9002;42.708;23.186;2024-01-30T05:49:44;96944.19;;;0.36;50.52
8703;BME280;9002;42.708;23.186;2024-01-30T05:52:11;96948.13;;;0.40;50.55
8703;BME280;9002;42.708;23.186;2024-01-30T05:54:38;96939.19;;;0.55;49.27
8703;BME280;9002;42.708;23.186;2024-01-30T05:57:05;96916.38;;;0.23;49.26
8703;BME280;9002;42.708;23.186;2024-01-30T05:59:31;96910.66;;;0.31;49.68
8703;BME280;9002;42.708;23.186;2024-01-30T06:01:58;96946.72;;;0.56;49.18
8703;BME280;9002;42.708;23.186;2024-01-30T06:04:25;96949.81;;;0.30;50.03
8703;BME280;9002;42.708;23.186;2024-01-30T06:06:53;96953.03;;;0.32;50.46
8703;BME280;9002;42.708;23.186;2024-01-30T06:09:21;96930.41;;;0.38;49.77
8703;BME280;9002;42.708;23.186;2024-01-30T06:11:48;96919.69;;;0.44;49.43
8703;BME280;9002;42.708;23.186;2024-01-30T06:14:14;96945.25;;;0.54;49.64
8703;BME280;9002;42.708;23.186;2024-01-30T06:16:42;96913.38;;;0.18;49.71
8703;BME280;9002;42.708;23.186;2024-01-30T06:19:09;96951.91;;;0.45;50.18
8703;BME280;9002;42.708;23.186;2024-01-30T06:21:36;96966.19;;;0.57;49.27
8703;BME280;9002;42.708;23.186;2024-01-30T06:24:05;96960.81;;;0.61;50.55
8703;BME280;9002;42.708;23.186;2024-01-30T06:26:32;96952.38;;;0.70;49.19
8703;BME280;9002;42.708;23.186;2024-01-30T06:28:59;96957.59;;;0.59;49.25
8703;BME280;9002;42.708;23.186;2024-01-30T06:31:26;96925.03;;;0.41;48.14
8703;BME280;9002;42.708;23.186;2024-01-30T06:33:53;96963.63;;;0.27;48.44
8703;BME280;9002;42.708;23.186;2024-01-30T06:36:21;96961.13;;;0.16;49.01
8703;BME280;9002;42.708;23.186;2024-01-30T06:38:50;96917.97;;;-0.07;49.28
8703;BME280;9002;42.708;23.186;2024-01-30T06:41:18;96967.84;;;0.38;48.53
8703;BME280;9002;42.708;23.186;2024-01-30T06:43:46;96960.28;;;0.57;47.51
8703;BME280;9002;42.708;23.186;2024-01-30T06:46:13;96964.22;;;0.71;47.97
8703;BME280;9002;42.708;23.186;2024-01-30T06:48:40;96916.66;;;0.60;47.22
8703;BME280;9002;42.708;23.186;2024-01-30T06:51:09;96965.41;;;1.17;47.41
8703;BME280;9002;42.708;23.186;2024-01-30T06:53:36;96938.41;;;1.14;47.38
8703;BME280;9002;42.708;23.186;2024-01-30T06:56:03;96930.38;;;1.19;46.64
8703;BME280;9002;42.708;23.186;2024-01-30T06:58:32;96975.78;;;1.34;45.91
8703;BME280;9002;42.708;23.186;2024-01-30T07:00:59;96928.41;;;0.72;47.24
8703;BME280;9002;42.708;23.186;2024-01-30T07:03:27;96964.50;;;1.18;46.84
8703;BME280;9002;42.708;23.186;2024-01-30T07:05:55;96964.50;;;1.18;46.63
8703;BME280;9002;42.708;23.186;2024-01-30T07:08:22;96939.88;;;1.07;46.07
8703;BME280;9002;42.708;23.186;2024-01-30T07:10:52;96964.41;;;1.38;45.63
8703;BME280;9002;42.708;23.186;2024-01-30T07:13:20;96975.00;;;1.34;44.66
8703;BME280;9002;42.708;23.186;2024-01-30T07:15:49;96973.13;;;1.26;45.67
8703;BME280;9002;42.708;23.186;2024-01-30T07:18:16;96966.25;;;1.17;45.30
8703;BME280;9002;42.708;23.186;2024-01-30T07:20:43;96952.16;;;1.32;45.24
8703;BME280;9002;42.708;23.186;2024-01-30T07:26:36;96970.09;;;1.02;45.80
8703;BME280;9002;42.708;23.186;2024-01-30T07:29:03;96976.66;;;0.95;46.10
8703;BME280;9002;42.708;23.186;2024-01-30T07:31:36;96937.56;;;0.84;45.57
8703;BME280;9002;42.708;23.186;2024-01-30T07:34:10;96957.41;;;0.81;45.55
8703;BME280;9002;42.708;23.186;2024-01-30T07:36:37;96903.13;;;0.69;45.17
8703;BME280;9002;42.708;23.186;2024-01-30T07:39:04;96915.94;;;0.89;45.47
8703;BME280;9002;42.708;23.186;2024-01-30T07:41:36;96959.94;;;1.40;44.44
8703;BME280;9002;42.708;23.186;2024-01-30T07:44:26;96968.13;;;1.34;43.26
8703;BME280;9002;42.708;23.186;2024-01-30T07:46:55;96935.56;;;0.98;44.84
8703;BME280;9002;42.708;23.186;2024-01-30T07:49:22;96948.63;;;1.24;43.74
8703;BME280;9002;42.708;23.186;2024-01-30T07:51:49;96962.38;;;1.42;44.41
8703;BME280;9002;42.708;23.186;2024-01-30T07:54:16;96949.22;;;1.47;44.40
8703;BME280;9002;42.708;23.186;2024-01-30T07:56:43;96973.53;;;1.70;44.29
8703;BME280;9002;42.708;23.186;2024-01-30T07:59:11;96943.97;;;1.77;44.25
8703;BME280;9002;42.708;23.186;2024-01-30T08:01:38;96951.09;;;1.93;43.86
8703;BME280;9002;42.708;23.186;2024-01-30T08:04:06;96951.38;;;1.80;43.44
8703;BME280;9002;42.708;23.186;2024-01-30T08:06:33;96940.88;;;1.35;43.34
8703;BME280;9002;42.708;23.186;2024-01-30T08:09:00;96949.06;;;1.38;44.37
8703;BME280;9002;42.708;23.186;2024-01-30T08:11:28;96966.81;;;1.69;43.37
8703;BME280;9002;42.708;23.186;2024-01-30T08:13:54;96961.31;;;1.74;43.39
8703;BME280;9002;42.708;23.186;2024-01-30T08:16:24;96952.72;;;1.65;43.46
8703;BME280;9002;42.708;23.186;2024-01-30T08:18:51;96941.13;;;1.70;42.63
8703;BME280;9002;42.708;23.186;2024-01-30T08:21:20;96949.06;;;1.77;42.33
8703;BME280;9002;42.708;23.186;2024-01-30T08:23:50;96958.47;;;1.86;43.20
8703;BME280;9002;42.708;23.186;2024-01-30T08:26:21;96955.25;;;1.84;44.10
8703;BME280;9002;42.708;23.186;2024-01-30T08:28:47;96959.69;;;1.92;43.95
8703;BME280;9002;42.708;23.186;2024-01-30T08:31:15;96955.66;;;2.09;44.34
8703;BME280;9002;42.708;23.186;2024-01-30T08:33:42;96941.63;;;2.13;42.96
8703;BME280;9002;42.708;23.186;2024-01-30T08:36:09;96967.69;;;2.45;42.99
8703;BME280;9002;42.708;23.186;2024-01-30T08:38:38;96969.03;;;2.40;42.60
8703;BME280;9002;42.708;23.186;2024-01-30T08:41:05;96975.56;;;2.62;41.88
8703;BME280;9002;42.708;23.186;2024-01-30T08:43:33;96958.94;;;2.38;41.37
8703;BME280;9002;42.708;23.186;2024-01-30T08:46:05;96970.22;;;2.45;41.42
8703;BME280;9002;42.708;23.186;2024-01-30T08:48:32;96952.13;;;2.19;42.18
8703;BME280;9002;42.708;23.186;2024-01-30T08:50:59;96938.09;;;2.23;42.15
8703;BME280;9002;42.708;23.186;2024-01-30T08:53:26;96974.13;;;2.40;42.89
8703;BME280;9002;42.708;23.186;2024-01-30T08:55:54;96908.47;;;1.84;43.29
8703;BME280;9002;42.708;23.186;2024-01-30T08:58:24;96969.66;;;2.51;42.77
8703;BME280;9002;42.708;23.186;2024-01-30T09:00:51;96982.50;;;2.32;42.18
8703;BME280;9002;42.708;23.186;2024-01-30T09:03:31;96935.22;;;1.99;42.54
8703;BME280;9002;42.708;23.186;2024-01-30T09:05:58;96919.06;;;1.98;43.73
8703;BME280;9002;42.708;23.186;2024-01-30T09:08:26;96984.56;;;2.19;44.99
8703;BME280;9002;42.708;23.186;2024-01-30T09:10:55;96970.72;;;1.92;45.92
8703;BME280;9002;42.708;23.186;2024-01-30T09:13:22;96966.00;;;1.97;46.32
8703;BME280;9002;42.708;23.186;2024-01-30T09:15:49;96944.63;;;1.60;47.08
8703;BME280;9002;42.708;23.186;2024-01-30T09:18:18;96974.47;;;2.08;46.79
8703;BME280;9002;42.708;23.186;2024-01-30T09:20:54;96932.94;;;1.77;46.59
8703;BME280;9002;42.708;23.186;2024-01-30T09:23:31;96970.84;;;2.10;45.61
8703;BME280;9002;42.708;23.186;2024-01-30T09:26:00;96954.25;;;2.24;46.28
8703;BME280;9002;42.708;23.186;2024-01-30T09:28:27;96945.41;;;2.09;45.62
8703;BME280;9002;42.708;23.186;2024-01-30T09:30:54;96925.25;;;1.96;45.14
8703;BME280;9002;42.708;23.186;2024-01-30T09:33:21;96963.16;;;2.20;45.14
8703;BME280;9002;42.708;23.186;2024-01-30T09:35:48;96951.44;;;2.27;45.26
8703;BME280;9002;42.708;23.186;2024-01-30T09:38:16;96959.84;;;1.90;46.23
8703;BME280;9002;42.708;23.186;2024-01-30T09:40:50;96959.16;;;2.08;45.47
8703;BME280;9002;42.708;23.186;2024-01-30T09:43:23;96934.16;;;1.63;45.99
8703;BME280;9002;42.708;23.186;2024-01-30T09:45:50;96961.03;;;1.96;45.91
8703;BME280;9002;42.708;23.186;2024-01-30T09:48:17;96943.25;;;2.14;45.37
8703;BME280;9002;42.708;23.186;2024-01-30T09:50:44;96918.25;;;1.88;44.74
8703;BME280;9002;42.708;23.186;2024-01-30T09:53:13;96943.22;;;2.23;45.44
8703;BME280;9002;42.708;23.186;2024-01-30T09:55:43;96958.31;;;1.97;45.36
8703;BME280;9002;42.708;23.186;2024-01-30T09:58:11;96922.84;;;1.85;45.05
8703;BME280;9002;42.708;23.186;2024-01-30T10:00:39;96930.91;;;1.99;44.53
8703;BME280;9002;42.708;23.186;2024-01-30T10:03:07;96950.78;;;2.25;45.67
8703;BME280;9002;42.708;23.186;2024-01-30T10:05:35;96953.72;;;2.30;45.02
8703;BME280;9002;42.708;23.186;2024-01-30T10:08:06;96901.13;;;2.18;45.15
8703;BME280;9002;42.708;23.186;2024-01-30T10:10:33;96934.81;;;2.41;45.22
8703;BME280;9002;42.708;23.186;2024-01-30T10:13:01;96937.28;;;2.33;45.69
8703;BME280;9002;42.708;23.186;2024-01-30T10:15:28;96939.47;;;2.65;43.91
8703;BME280;9002;42.708;23.186;2024-01-30T10:17:56;96943.06;;;2.72;43.87
8703;BME280;9002;42.708;23.186;2024-01-30T10:20:25;96921.56;;;2.92;43.08
8703;BME280;9002;42.708;23.186;2024-01-30T10:23:15;96914.94;;;3.17;42.80
8703;BME280;9002;42.708;23.186;2024-01-30T10:26:02;96901.44;;;3.42;41.21
8703;BME280;9002;42.708;23.186;2024-01-30T10:28:30;96935.22;;;3.64;41.33
8703;BME280;9002;42.708;23.186;2024-01-30T10:30:58;96925.19;;;3.70;41.48
8703;BME280;9002;42.708;23.186;2024-01-30T10:33:27;96933.25;;;3.76;42.22
8703;BME280;9002;42.708;23.186;2024-01-30T10:35:57;96919.81;;;4.25;38.86
8703;BME280;9002;42.708;23.186;2024-01-30T10:38:29;96921.91;;;4.30;39.31
8703;BME280;9002;42.708;23.186;2024-01-30T10:40:57;96929.97;;;4.35;39.15
8703;BME280;9002;42.708;23.186;2024-01-30T10:43:30;96938.50;;;3.92;40.29
8703;BME280;9002;42.708;23.186;2024-01-30T10:46:01;96927.28;;;3.93;41.04
8703;BME280;9002;42.708;23.186;2024-01-30T10:48:36;96933.94;;;4.04;40.12
8703;BME280;9002;42.708;23.186;2024-01-30T10:51:13;96924.00;;;4.95;37.95
8703;BME280;9002;42.708;23.186;2024-01-30T10:53:44;96853.97;;;4.76;37.07
8703;BME280;9002;42.708;23.186;2024-01-30T10:56:13;96924.28;;;5.42;37.87
8703;BME280;9002;42.708;23.186;2024-01-30T10:58:44;96886.13;;;4.97;38.18
8703;BME280;9002;42.708;23.186;2024-01-30T11:01:12;96875.59;;;5.57;36.64
8703;BME280;9002;42.708;23.186;2024-01-30T11:03:42;96894.84;;;6.26;35.50
8703;BME280;9002;42.708;23.186;2024-01-30T11:06:11;96905.53;;;7.32;33.42
8703;BME280;9002;42.708;23.186;2024-01-30T11:08:39;96898.63;;;8.46;31.66
8703;BME280;9002;42.708;23.186;2024-01-30T11:13:42;96896.50;;;8.49;30.37
8703;BME280;9002;42.708;23.186;2024-01-30T11:16:11;96888.22;;;8.02;31.72
8703;BME280;9002;42.708;23.186;2024-01-30T11:18:38;96885.00;;;8.81;30.73
8703;BME280;9002;42.708;23.186;2024-01-30T11:21:06;96896.66;;;9.28;29.30
8703;BME280;9002;42.708;23.186;2024-01-30T11:23:34;96890.78;;;8.84;30.58
8703;BME280;9002;42.708;23.186;2024-01-30T11:26:01;96856.09;;;8.93;30.06
8703;BME280;9002;42.708;23.186;2024-01-30T11:28:33;96890.91;;;9.33;29.97
8703;BME280;9002;42.708;23.186;2024-01-30T11:31:04;96875.44;;;9.82;28.26
8703;BME280;9002;42.708;23.186;2024-01-30T11:33:32;96851.16;;;8.47;30.03
8703;BME280;9002;42.708;23.186;2024-01-30T11:36:00;96891.91;;;7.47;32.40
8703;BME280;9002;42.708;23.186;2024-01-30T11:38:29;96892.91;;;7.83;31.96
8703;BME280;9002;42.708;23.186;2024-01-30T11:40:56;96898.38;;;8.03;31.79
8703;BME280;9002;42.708;23.186;2024-01-30T11:43:23;96882.88;;;6.89;33.27
8703;BME280;9002;42.708;23.186;2024-01-30T11:45:54;96862.09;;;5.55;35.07
8703;BME280;9002;42.708;23.186;2024-01-30T11:48:22;96824.81;;;5.18;35.96
8703;BME280;9002;42.708;23.186;2024-01-30T11:50:50;96874.78;;;5.32;36.90
8703;BME280;9002;42.708;23.186;2024-01-30T11:53:17;96818.97;;;4.59;37.79
8703;BME280;9002;42.708;23.186;2024-01-30T11:55:50;96853.50;;;4.39;38.79
8703;BME280;9002;42.708;23.186;2024-01-30T11:58:18;96843.34;;;4.63;37.84
8703;BME280;9002;42.708;23.186;2024-01-30T12:01:06;96876.72;;;4.71;38.16
8703;BME280;9002;42.708;23.186;2024-01-30T12:04:05;96863.56;;;3.98;40.05
8703;BME280;9002;42.708;23.186;2024-01-30T12:06:44;96819.69;;;3.57;40.33
8703;BME280;9002;42.708;23.186;2024-01-30T12:09:14;96854.69;;;4.18;39.64
8703;BME280;9002;42.708;23.186;2024-01-30T12:11:47;96825.63;;;4.44;40.32
8703;BME280;9002;42.708;23.186;2024-01-30T12:14:16;96851.28;;;4.94;38.37
8703;BME280;9002;42.708;23.186;2024-01-30T12:16:43;96836.38;;;5.06;37.97
8703;BME280;9002;42.708;23.186;2024-01-30T12:19:10;96844.75;;;5.73;36.90
8703;BME280;9002;42.708;23.186;2024-01-30T12:21:39;96816.78;;;5.86;36.08
8703;BME280;9002;42.708;23.186;2024-01-30T12:24:06;96809.72;;;5.96;37.05
8703;BME280;9002;42.708;23.186;2024-01-30T12:26:34;96839.72;;;7.22;34.37
8703;BME280;9002;42.708;23.186;2024-01-30T12:29:04;96830.69;;;6.64;34.41
8703;BME280;9002;42.708;23.186;2024-01-30T12:31:32;96819.41;;;6.65;34.54
8703;BME280;9002;42.708;23.186;2024-01-30T12:33:59;96829.09;;;6.94;33.97
8703;BME280;9002;42.708;23.186;2024-01-30T12:36:28;96829.53;;;7.66;32.44
8703;BME280;9002;42.708;23.186;2024-01-30T12:38:56;96807.88;;;8.49;31.46
8703;BME280;9002;42.708;23.186;2024-01-30T12:41:23;96792.31;;;8.78;30.52
8703;BME280;9002;42.708;23.186;2024-01-30T12:43:54;96821.25;;;8.89;30.07
8703;BME280;9002;42.708;23.186;2024-01-30T12:46:25;96828.38;;;8.36;30.24
8703;BME280;9002;42.708;23.186;2024-01-30T12:48:52;96804.69;;;7.50;32.12
8703;BME280;9002;42.708;23.186;2024-01-30T12:51:19;96815.28;;;7.55;32.53
8703;BME280;9002;42.708;23.186;2024-01-30T12:53:46;96808.50;;;8.51;31.50
8703;BME280;9002;42.708;23.186;2024-01-30T12:56:14;96811.78;;;8.96;30.78
8703;BME280;9002;42.708;23.186;2024-01-30T12:58:41;96804.91;;;8.67;29.88
8703;BME280;9002;42.708;23.186;2024-01-30T13:01:08;96814.94;;;8.40;30.71
8703;BME280;9002;42.708;23.186;2024-01-30T13:03:37;96808.88;;;8.84;30.79
8703;BME280;9002;42.708;23.186;2024-01-30T13:06:04;96809.19;;;8.96;29.93
8703;BME280;9002;42.708;23.186;2024-01-30T13:08:31;96799.25;;;9.14;28.79
8703;BME280;9002;42.708;23.186;2024-01-30T13:10:58;96808.41;;;8.95;30.17
8703;BME280;9002;42.708;23.186;2024-01-30T13:13:25;96801.06;;;9.42;30.44
8703;BME280;9002;42.708;23.186;2024-01-30T13:15:52;96792.34;;;9.00;29.51
8703;BME280;9002;42.708;23.186;2024-01-30T13:18:19;96795.16;;;8.03;31.87
8703;BME280;9002;42.708;23.186;2024-01-30T13:20:48;96772.06;;;7.20;32.81
8703;BME280;9002;42.708;23.186;2024-01-30T13:23:17;96796.50;;;7.47;33.11
8703;BME280;9002;42.708;23.186;2024-01-30T13:25:44;96792.47;;;8.56;31.93
8703;BME280;9002;42.708;23.186;2024-01-30T13:28:11;96778.47;;;9.07;29.83
8703;BME280;9002;42.708;23.186;2024-01-30T13:30:38;96792.00;;;8.52;30.88
8703;BME280;9002;42.708;23.186;2024-01-30T13:33:07;96793.84;;;8.37;30.49
8703;BME280;9002;42.708;23.186;2024-01-30T13:35:34;96795.75;;;7.76;32.21